createdAt,value
2022-10-27T00:01:57.225Z,101338.44
2022-10-27T00:04:59.735Z,101348.38
2022-10-27T00:08:02.103Z,101343.00
2022-10-27T00:11:06.596Z,101341.03
2022-10-27T00:14:09.036Z,101346.72
2022-10-27T00:17:11.557Z,101347.34
2022-10-27T00:20:13.966Z,101359.09
2022-10-27T00:23:16.461Z,101333.16
2022-10-27T00:26:20.962Z,101329.91
2022-10-27T00:29:23.559Z,101328.75
2022-10-27T00:32:26.032Z,101349.47
2022-10-27T00:35:28.694Z,101347.69
2022-10-27T00:38:30.910Z,101356.94
2022-10-27T00:41:36.648Z,101361.03
2022-10-27T00:44:41.637Z,101347.38
2022-10-27T00:47:44.197Z,101358.94
2022-10-27T00:50:46.989Z,101359.41
2022-10-27T00:53:50.010Z,101343.00
2022-10-27T00:56:53.920Z,101352.41
2022-10-27T00:59:58.186Z,101355.00
2022-10-27T01:03:00.468Z,101373.56
2022-10-27T01:06:03.306Z,101368.03
2022-10-27T01:09:06.404Z,101366.72
2022-10-27T01:12:09.507Z,101365.59
2022-10-27T01:15:12.438Z,101364.78
2022-10-27T01:18:27.206Z,101371.12
2022-10-27T01:21:38.554Z,101376.84
2022-10-27T01:25:10.465Z,101377.62
2022-10-27T01:28:30.744Z,101380.09
2022-10-27T01:31:41.744Z,101378.12
2022-10-27T01:34:50.045Z,101382.69
2022-10-27T01:38:10.408Z,101369.66
2022-10-27T01:41:22.543Z,101370.50
2022-10-27T01:44:31.845Z,101385.94
2022-10-27T01:47:34.400Z,101394.22
2022-10-27T01:50:56.845Z,101369.50
2022-10-27T01:54:03.673Z,101385.75
2022-10-27T01:57:27.430Z,101391.16
2022-10-27T02:00:33.631Z,101376.50
2022-10-27T02:03:43.263Z,101374.69
2022-10-27T02:07:13.973Z,101399.59
2022-10-27T02:10:22.990Z,101397.13
2022-10-27T02:13:25.631Z,101374.53
2022-10-27T02:16:31.748Z,101383.47
2022-10-27T02:19:36.970Z,101381.06
2022-10-27T02:22:41.903Z,101397.31
2022-10-27T02:26:00.426Z,101402.38
2022-10-27T02:29:09.754Z,101401.84
2022-10-27T02:32:16.748Z,101396.97
2022-10-27T02:35:20.146Z,101379.72
2022-10-27T02:38:22.497Z,101394.69
2022-10-27T02:41:25.119Z,101380.38
2022-10-27T02:44:27.358Z,101390.91
2022-10-27T02:47:29.949Z,101408.34
2022-10-27T02:50:32.311Z,101402.31
2022-10-27T02:53:34.911Z,101387.78
2022-10-27T02:56:37.196Z,101405.25
2022-10-27T02:59:39.689Z,101408.66
2022-10-27T03:02:41.881Z,101405.41
2022-10-27T03:05:45.599Z,101396.37
2022-10-27T03:08:50.572Z,101401.91
2022-10-27T03:11:53.177Z,101422.72
2022-10-27T03:14:55.410Z,101416.06
2022-10-27T03:17:57.994Z,101400.28
2022-10-27T03:21:00.190Z,101415.88
2022-10-27T03:24:02.813Z,101417.56
2022-10-27T03:27:05.093Z,101392.31
2022-10-27T03:30:15.820Z,101404.19
2022-10-27T03:33:18.115Z,101413.19
2022-10-27T03:36:20.670Z,101417.56
2022-10-27T03:39:22.911Z,101429.59
2022-10-27T03:42:25.793Z,101439.53
2022-10-27T03:45:28.578Z,101430.13
2022-10-27T03:48:31.117Z,101430.94
2022-10-27T03:51:33.329Z,101427.94
2022-10-27T03:54:35.866Z,101422.72
2022-10-27T03:57:38.283Z,101446.34
2022-10-27T04:00:41.588Z,101427.56
2022-10-27T04:03:44.074Z,101424.50
2022-10-27T04:06:46.554Z,101438.34
2022-10-27T04:09:49.118Z,101425.12
2022-10-27T04:12:53.722Z,101432.94
2022-10-27T04:15:59.834Z,101448.09
2022-10-27T04:19:02.041Z,101447.28
2022-10-27T04:22:04.542Z,101444.31
2022-10-27T04:25:07.506Z,101451.34
2022-10-27T04:28:10.144Z,101451.88
2022-10-27T04:31:12.350Z,101456.28
2022-10-27T04:34:14.883Z,101452.31
2022-10-27T04:37:17.142Z,101463.44
2022-10-27T04:40:19.627Z,101468.44
2022-10-27T04:43:21.863Z,101472.38
2022-10-27T04:46:24.393Z,101462.84
2022-10-27T04:49:26.600Z,101452.12
2022-10-27T04:52:29.274Z,101474.78
2022-10-27T04:55:33.131Z,101460.91
2022-10-27T04:58:35.712Z,101486.66
2022-10-27T05:01:39.498Z,101463.38
2022-10-27T05:04:42.152Z,101484.37
2022-10-27T05:07:51.567Z,101475.62
2022-10-27T05:10:54.079Z,101469.59
2022-10-27T05:13:56.289Z,101486.84
2022-10-27T05:16:58.898Z,101496.44
2022-10-27T05:20:01.160Z,101472.38
2022-10-27T05:23:03.687Z,101487.00
2022-10-27T05:26:09.547Z,101495.28
2022-10-27T05:29:30.124Z,101493.69
2022-10-27T05:32:34.848Z,101490.56
2022-10-27T05:35:37.394Z,101501.34
2022-10-27T05:38:39.627Z,101512.88
2022-10-27T05:41:42.429Z,101508.47
2022-10-27T05:44:44.808Z,101498.41
2022-10-27T05:47:47.454Z,101509.47
2022-10-27T05:50:54.027Z,101499.06
2022-10-27T05:53:57.958Z,101522.53
2022-10-27T05:57:00.319Z,101511.09
2022-10-27T06:00:03.489Z,101521.25
2022-10-27T06:03:19.966Z,101525.31
2022-10-27T06:06:22.479Z,101517.47
2022-10-27T06:09:24.711Z,101517.00
2022-10-27T06:12:27.166Z,101532.63
2022-10-27T06:15:30.409Z,101529.03
2022-10-27T06:18:33.572Z,101557.19
2022-10-27T06:21:35.799Z,101556.41
2022-10-27T06:24:38.391Z,101561.59
2022-10-27T06:27:40.788Z,101555.75
2022-10-27T06:30:46.118Z,101544.34
2022-10-27T06:33:48.456Z,101559.84
2022-10-27T06:36:50.932Z,101569.59
2022-10-27T06:39:57.337Z,101567.34
2022-10-27T06:43:08.407Z,101565.87
2022-10-27T06:46:10.922Z,101555.28
2022-10-27T06:49:15.520Z,101572.75
2022-10-27T06:52:19.959Z,101571.94
2022-10-27T06:55:22.589Z,101562.47
2022-10-27T06:58:24.907Z,101589.50
2022-10-27T07:01:27.903Z,101589.19
2022-10-27T07:04:30.673Z,101530.66
2022-10-27T07:07:33.634Z,101590.69
2022-10-27T07:10:35.963Z,101593.47
2022-10-27T07:13:38.565Z,101591.59
2022-10-27T07:16:40.942Z,101587.72
2022-10-27T07:19:43.436Z,101563.91
2022-10-27T07:22:45.686Z,101612.19
2022-10-27T07:25:49.450Z,101617.88
2022-10-27T07:28:51.789Z,101602.09
2022-10-27T07:31:54.313Z,101627.34
2022-10-27T07:34:59.323Z,101604.53
2022-10-27T07:38:02.139Z,101605.88
2022-10-27T07:41:04.712Z,101636.66
2022-10-27T07:44:07.257Z,101626.25
2022-10-27T07:47:09.497Z,101632.25
2022-10-27T07:50:13.234Z,101651.53
2022-10-27T07:53:16.327Z,101654.81
2022-10-27T07:56:19.175Z,101656.22
2022-10-27T07:59:21.489Z,101633.41
2022-10-27T08:02:24.090Z,101655.59
2022-10-27T08:05:27.130Z,101641.41
2022-10-27T08:08:30.153Z,101672.56
2022-10-27T08:11:32.742Z,101676.16
2022-10-27T08:14:35.010Z,101653.19
2022-10-27T08:17:39.232Z,101676.00
2022-10-27T08:20:42.650Z,101684.78
2022-10-27T08:23:45.318Z,101689.69
2022-10-27T08:26:49.372Z,101691.34
2022-10-27T08:29:51.986Z,101690.50
2022-10-27T08:32:59.397Z,101676.16
2022-10-27T08:36:02.688Z,101701.91
2022-10-27T08:39:12.807Z,101693.78
2022-10-27T08:42:47.338Z,101668.53
2022-10-27T08:46:02.033Z,101689.34
2022-10-27T08:52:55.190Z,101676.16
2022-10-27T08:56:04.492Z,101677.81
2022-10-27T08:59:14.501Z,101677.81
2022-10-27T09:02:50.677Z,101665.75
2022-10-27T09:06:17.832Z,101684.66
2022-10-27T09:09:50.763Z,101685.50
2022-10-27T09:13:07.943Z,101685.97
2022-10-27T09:16:16.752Z,101687.44
2022-10-27T09:19:34.389Z,101665.75
2022-10-27T09:22:41.663Z,101682.53
2022-10-27T09:25:47.708Z,101684.31
2022-10-27T09:28:52.290Z,101680.41
2022-10-27T09:32:06.701Z,101693.12
2022-10-27T09:35:16.498Z,101702.09
2022-10-27T09:38:25.857Z,101704.72
2022-10-27T09:41:28.482Z,101695.06
2022-10-27T09:44:30.739Z,101701.59
2022-10-27T09:47:39.831Z,101690.53
2022-10-27T09:51:12.870Z,101682.84
2022-10-27T09:54:32.687Z,101695.91
2022-10-27T09:57:38.775Z,101677.00
2022-10-27T10:00:42.670Z,101683.50
2022-10-27T10:03:55.735Z,101702.09
2022-10-27T10:07:01.449Z,101694.59
2022-10-27T10:10:27.208Z,101689.06
2022-10-27T10:13:34.266Z,101699.31
2022-10-27T10:16:36.863Z,101700.97
2022-10-27T10:19:46.465Z,101685.63
2022-10-27T10:22:51.199Z,101688.75
2022-10-27T10:25:58.217Z,101688.88
2022-10-27T10:29:18.041Z,101703.72
2022-10-27T10:32:29.924Z,101690.34
2022-10-27T10:35:42.746Z,101677.97
2022-10-27T10:38:50.848Z,101710.41
2022-10-27T10:42:15.853Z,101694.09
2022-10-27T10:45:23.486Z,101702.06
2022-10-27T10:48:47.207Z,101631.84
2022-10-27T10:51:58.153Z,101700.59
2022-10-27T10:55:16.676Z,101706.44
2022-10-27T10:58:21.720Z,101703.00
2022-10-27T11:01:39.914Z,101695.03
2022-10-27T11:04:44.563Z,101682.31
2022-10-27T11:07:49.094Z,101693.06
2022-10-27T11:10:55.835Z,101699.59
2022-10-27T11:14:07.824Z,101673.84
2022-10-27T11:17:10.852Z,101685.88
2022-10-27T11:20:21.958Z,101693.34
2022-10-27T11:23:49.352Z,101681.94
2022-10-27T11:27:13.172Z,101693.00
2022-10-27T11:30:24.743Z,101692.16
2022-10-27T11:33:56.424Z,101688.75
2022-10-27T11:37:29.723Z,101693.00
2022-10-27T11:40:51.261Z,101669.69
2022-10-27T11:44:08.829Z,101698.25
2022-10-27T11:47:20.929Z,101687.97
2022-10-27T11:50:46.204Z,101686.81
2022-10-27T11:53:51.820Z,101680.94
2022-10-27T11:57:38.659Z,101678.16
2022-10-27T12:01:00.472Z,101664.31
2022-10-27T12:04:32.147Z,101658.72
2022-10-27T12:08:07.913Z,101680.69
2022-10-27T12:11:20.658Z,101650.66
2022-10-27T12:14:53.619Z,101658.53
2022-10-27T12:18:13.072Z,101664.53
2022-10-27T12:21:23.478Z,101637.25
2022-10-27T12:24:35.548Z,101664.56
2022-10-27T12:27:41.854Z,101638.41
2022-10-27T12:30:47.965Z,101637.72
2022-10-27T12:34:03.280Z,101647.81
2022-10-27T12:37:16.427Z,101648.06
2022-10-27T12:40:38.575Z,101652.00
2022-10-27T12:44:20.748Z,101631.81
2022-10-27T12:47:36.019Z,101639.63
2022-10-27T12:51:17.339Z,101655.59
2022-10-27T12:54:44.142Z,101650.63
2022-10-27T12:57:53.159Z,101649.34
2022-10-27T13:01:02.582Z,101652.94
2022-10-27T13:04:33.305Z,101645.75
2022-10-27T13:07:57.296Z,101651.88
2022-10-27T13:11:25.094Z,101663.16
2022-10-27T13:15:01.412Z,101656.19
2022-10-27T13:18:37.258Z,101650.94
2022-10-27T13:21:52.073Z,101651.44
2022-10-27T13:25:16.251Z,101652.50
2022-10-27T13:28:42.039Z,101645.31
2022-10-27T13:31:44.684Z,101614.41
2022-10-27T13:35:02.470Z,101638.19
2022-10-27T13:38:21.314Z,101646.00
2022-10-27T13:42:01.115Z,101645.22
2022-10-27T13:45:30.026Z,101651.25
2022-10-27T13:48:34.239Z,101660.75
2022-10-27T13:51:49.049Z,101645.44
2022-10-27T13:55:03.997Z,101639.97
2022-10-27T13:58:18.694Z,101647.44
2022-10-27T14:01:27.243Z,101654.81
2022-10-27T14:04:46.970Z,101635.47
2022-10-27T14:07:49.823Z,101655.38
2022-10-27T14:10:54.938Z,101638.13
2022-10-27T14:14:05.458Z,101651.81
2022-10-27T14:17:21.117Z,101656.44
2022-10-27T14:20:32.055Z,101661.00
2022-10-27T14:23:34.740Z,101657.47
2022-10-27T14:26:37.991Z,101650.78
2022-10-27T14:29:40.612Z,101637.75
2022-10-27T14:32:42.944Z,101663.34
2022-10-27T14:35:45.637Z,101666.00
2022-10-27T14:39:04.882Z,101642.81
2022-10-27T14:42:19.672Z,101657.50
2022-10-27T14:45:23.912Z,101652.12
2022-10-27T14:48:30.431Z,101652.31
2022-10-27T14:51:38.162Z,101657.34
2022-10-27T14:54:47.308Z,101637.00
2022-10-27T14:57:51.556Z,101644.19
2022-10-27T15:00:54.767Z,101648.09
2022-10-27T15:03:58.497Z,101668.97
2022-10-27T15:07:03.032Z,101645.03
2022-10-27T15:10:06.100Z,101654.97
2022-10-27T15:13:18.208Z,101669.31
2022-10-27T15:16:24.608Z,101669.97
2022-10-27T15:19:27.615Z,101669.00
2022-10-27T15:22:30.149Z,101675.19
2022-10-27T15:25:33.176Z,101648.47
2022-10-27T15:28:36.964Z,101659.56
2022-10-27T15:31:43.299Z,101659.84
2022-10-27T15:34:45.646Z,101649.12
2022-10-27T15:37:48.159Z,101648.16
2022-10-27T15:40:52.000Z,101666.75
2022-10-27T15:44:03.629Z,101669.81
2022-10-27T15:47:42.204Z,101670.63
2022-10-27T15:51:00.407Z,101671.28
2022-10-27T15:54:02.881Z,101649.47
2022-10-27T15:57:33.509Z,101676.34
2022-10-27T16:00:35.779Z,101676.66
2022-10-27T16:03:56.269Z,101684.97
2022-10-27T16:07:29.385Z,101680.91
2022-10-27T16:10:33.555Z,101680.91
2022-10-27T16:13:35.974Z,101668.38
2022-10-27T16:16:38.702Z,101680.75
2022-10-27T16:19:42.171Z,101686.59
2022-10-27T16:22:45.924Z,101682.22
2022-10-27T16:25:49.175Z,101687.59
2022-10-27T16:28:55.828Z,101683.00
2022-10-27T16:32:02.517Z,101680.91
2022-10-27T16:35:05.414Z,101669.31
2022-10-27T16:38:10.287Z,101693.78
2022-10-27T16:41:27.426Z,101692.28
2022-10-27T16:44:29.735Z,101691.31
2022-10-27T16:47:32.327Z,101704.84
2022-10-27T16:50:37.285Z,101702.41
2022-10-27T16:53:55.832Z,101702.41
2022-10-27T16:56:58.358Z,101701.59
2022-10-27T17:00:00.640Z,101692.62
2022-10-27T17:03:03.228Z,101706.50
2022-10-27T17:06:06.052Z,101695.41
2022-10-27T17:09:09.487Z,101692.78
2022-10-27T17:12:11.715Z,101713.16
2022-10-27T17:15:14.333Z,101711.22
2022-10-27T17:18:16.585Z,101709.91
2022-10-27T17:21:19.166Z,101685.94
2022-10-27T17:24:21.478Z,101695.69
2022-10-27T17:27:23.988Z,101709.38
2022-10-27T17:30:26.398Z,101701.25
2022-10-27T17:33:29.241Z,101704.34
2022-10-27T17:36:31.544Z,101707.41
2022-10-27T17:39:34.132Z,101718.53
2022-10-27T17:42:36.503Z,101718.84
2022-10-27T17:45:39.194Z,101705.81
2022-10-27T17:48:44.955Z,101724.06
2022-10-27T17:51:50.332Z,101726.84
2022-10-27T17:54:52.845Z,101715.72
2022-10-27T17:57:55.533Z,101737.09
2022-10-27T18:01:17.567Z,101723.56
2022-10-27T18:04:21.254Z,101726.69
2022-10-27T18:07:24.540Z,101728.28
2022-10-27T18:10:27.088Z,101733.84
2022-10-27T18:13:34.712Z,101728.94
2022-10-27T18:16:39.723Z,101732.22
2022-10-27T18:19:41.986Z,101706.44
2022-10-27T18:22:44.713Z,101725.03
2022-10-27T18:25:47.034Z,101733.34
2022-10-27T18:28:50.079Z,101722.59
2022-10-27T18:31:52.323Z,101728.94
2022-10-27T18:34:54.996Z,101706.72
2022-10-27T18:37:58.909Z,101718.16
2022-10-27T18:41:05.065Z,101727.00
2022-10-27T18:44:08.404Z,101686.81
2022-10-27T18:47:10.949Z,101712.63
2022-10-27T18:50:13.342Z,101738.41
2022-10-27T18:53:16.258Z,101728.44
2022-10-27T18:56:18.652Z,101735.13
2022-10-27T18:59:21.209Z,101718.16
2022-10-27T19:02:23.604Z,101713.75
2022-10-27T19:05:26.246Z,101731.03
2022-10-27T19:08:29.302Z,101731.22
2022-10-27T19:11:35.220Z,101729.59
2022-10-27T19:14:37.684Z,101715.75
2022-10-27T19:17:41.108Z,101731.22
2022-10-27T19:20:46.418Z,101730.41
2022-10-27T19:23:58.130Z,101742.13
2022-10-27T19:27:03.475Z,101739.69
2022-10-27T19:30:11.189Z,101739.69
2022-10-27T19:33:19.439Z,101743.75
2022-10-27T19:36:29.894Z,101739.88
2022-10-27T19:39:44.508Z,101746.19
2022-10-27T19:42:47.064Z,101742.31
2022-10-27T19:45:50.431Z,101746.38
2022-10-27T19:48:55.079Z,101745.56
2022-10-27T19:51:57.755Z,101746.72
2022-10-27T19:55:00.321Z,101755.84
2022-10-27T19:58:03.360Z,101750.94
2022-10-27T20:01:16.876Z,101761.84
2022-10-27T20:04:20.551Z,101764.12
2022-10-27T20:07:22.783Z,101766.38
2022-10-27T20:10:25.416Z,101759.22
2022-10-27T20:13:27.649Z,101766.97
2022-10-27T20:16:33.733Z,101750.66
2022-10-27T20:19:38.238Z,101765.37
2022-10-27T20:22:41.001Z,101765.37
2022-10-27T20:25:43.273Z,101767.66
2022-10-27T20:28:45.851Z,101761.28
2022-10-27T20:31:48.851Z,101748.06
2022-10-27T20:34:51.952Z,101769.91
2022-10-27T20:37:54.211Z,101743.78
2022-10-27T20:40:56.788Z,101750.66
2022-10-27T20:44:00.643Z,101763.53
2022-10-27T20:47:03.222Z,101761.94
2022-10-27T20:50:06.067Z,101746.41
2022-10-27T20:53:08.618Z,101761.09
2022-10-27T20:56:16.205Z,101762.91
2022-10-27T20:59:21.278Z,101763.38
2022-10-27T21:02:26.390Z,101767.62
2022-10-27T21:05:29.023Z,101761.75
2022-10-27T21:08:31.332Z,101768.94
2022-10-27T21:11:34.760Z,101749.31
2022-10-27T21:14:37.018Z,101768.56
2022-10-27T21:17:39.601Z,101752.25
2022-10-27T21:20:41.885Z,101765.94
2022-10-27T21:23:44.369Z,101750.44
2022-10-27T21:26:46.699Z,101769.84
2022-10-27T21:29:49.202Z,101762.69
2022-10-27T21:32:53.505Z,101762.50
2022-10-27T21:35:56.169Z,101748.59
2022-10-27T21:38:58.471Z,101769.66
2022-10-27T21:42:00.976Z,101747.00
2022-10-27T21:45:03.627Z,101772.75
2022-10-27T21:48:06.580Z,101768.84
2022-10-27T21:51:11.707Z,101764.94
2022-10-27T21:54:14.299Z,101770.50
2022-10-27T21:57:16.600Z,101772.75
2022-10-27T22:00:19.234Z,101749.25
2022-10-27T22:03:21.835Z,101767.53
2022-10-27T22:06:33.075Z,101776.66
2022-10-27T22:09:35.587Z,101772.75
2022-10-27T22:12:37.900Z,101773.38
2022-10-27T22:15:40.408Z,101761.63
2022-10-27T22:18:46.763Z,101767.19
2022-10-27T22:21:50.540Z,101773.91
2022-10-27T22:24:53.393Z,101773.56
2022-10-27T22:27:55.919Z,101767.84
2022-10-27T22:30:58.225Z,101764.72
2022-10-27T22:34:01.993Z,101777.47
2022-10-27T22:37:04.250Z,101765.72
2022-10-27T22:40:07.731Z,101765.22
2022-10-27T22:43:10.037Z,101773.38
2022-10-27T22:46:21.684Z,101762.59
2022-10-27T22:49:23.986Z,101773.38
2022-10-27T22:52:26.436Z,101765.84
2022-10-27T22:55:28.697Z,101775.97
2022-10-27T22:58:31.372Z,101780.06
2022-10-27T23:01:37.318Z,101757.69
2022-10-27T23:04:39.876Z,101779.56
2022-10-27T23:07:42.102Z,101759.31
2022-10-27T23:10:44.681Z,101777.94
2022-10-27T23:13:46.982Z,101776.28
2022-10-27T23:16:49.444Z,101770.75
2022-10-27T23:19:52.230Z,101774.66
2022-10-27T23:22:55.039Z,101768.63
2022-10-27T23:25:58.308Z,101762.25
2022-10-27T23:29:03.171Z,101756.50
2022-10-27T23:32:05.897Z,101780.66
2022-10-27T23:35:08.738Z,101778.22
2022-10-27T23:38:10.983Z,101776.06
2022-10-27T23:41:13.706Z,101782.09
2022-10-27T23:44:15.956Z,101778.84
2022-10-27T23:47:18.439Z,101777.19
2022-10-27T23:50:20.886Z,101791.53
2022-10-27T23:53:23.584Z,101764.97
2022-10-27T23:56:26.529Z,101790.22
2022-10-27T23:59:29.089Z,101788.91
